createdAt,value
2022-08-20T06:33:39.456Z,98809.78
2022-08-20T06:36:49.097Z,98810.69
2022-08-20T06:40:02.560Z,98811.47
2022-08-20T06:43:12.623Z,98805.47
2022-08-20T06:46:23.346Z,98806.47
2022-08-20T06:49:35.709Z,98802.13
2022-08-20T06:52:52.090Z,98800.00
2022-08-20T06:56:02.784Z,98801.00
2022-08-20T06:59:12.264Z,98812.00
2022-08-20T07:02:29.273Z,98806.97
2022-08-20T07:05:43.987Z,98809.16
2022-08-20T07:08:54.262Z,98813.72
2022-08-20T07:12:04.075Z,98809.66
2022-08-20T07:15:15.670Z,98809.25
2022-08-20T07:18:28.050Z,98807.16
2022-08-20T07:21:40.401Z,98813.91
2022-08-20T07:24:49.918Z,98812.16
2022-08-20T07:28:02.804Z,98815.75
2022-08-20T07:31:23.632Z,98820.56
2022-08-20T07:34:33.146Z,98816.19
2022-08-20T07:37:48.282Z,98814.72
2022-08-20T07:41:00.248Z,98824.72
2022-08-20T07:44:09.710Z,98820.53
2022-08-20T07:47:20.099Z,98824.78
2022-08-20T07:50:29.654Z,98824.41
2022-08-20T07:53:41.655Z,98823.84
2022-08-20T07:56:51.175Z,98829.44
2022-08-20T08:00:00.758Z,98820.09
2022-08-20T08:03:10.829Z,98831.47
2022-08-20T08:06:29.162Z,98826.88
2022-08-20T08:09:40.983Z,98825.38
2022-08-20T08:12:55.446Z,98827.03
2022-08-20T08:16:06.865Z,98822.66
2022-08-20T08:19:18.570Z,98827.38
2022-08-20T08:22:32.439Z,98819.34
2022-08-20T08:25:43.737Z,98814.34
2022-08-20T08:28:53.229Z,98818.81
2022-08-20T08:32:03.161Z,98808.22
2022-08-20T08:35:12.845Z,98814.00
2022-08-20T08:38:23.791Z,98818.88
2022-08-20T08:41:36.731Z,98826.97
2022-08-20T08:44:46.887Z,98830.22
2022-08-20T08:47:57.798Z,98828.00
2022-08-20T08:51:12.154Z,98837.16
2022-08-20T08:54:25.106Z,98836.22
2022-08-20T08:57:36.098Z,98835.09
2022-08-20T09:00:55.923Z,98824.31
2022-08-20T09:04:07.970Z,98824.06
2022-08-20T09:07:18.105Z,98824.50
2022-08-20T09:10:27.589Z,98819.56
2022-08-20T09:13:38.928Z,98810.59
2022-08-20T09:16:52.818Z,98809.09
2022-08-20T09:20:03.007Z,98795.19
2022-08-20T09:23:12.750Z,98803.22
2022-08-20T09:26:22.563Z,98800.81
2022-08-20T09:29:41.119Z,98800.94
2022-08-20T09:32:51.088Z,98795.78
2022-08-20T09:36:00.760Z,98785.19
2022-08-20T09:39:12.376Z,98792.25
2022-08-20T09:42:23.864Z,98797.53
2022-08-20T09:45:34.767Z,98794.03
2022-08-20T09:48:44.424Z,98788.69
2022-08-20T09:51:54.016Z,98781.69
2022-08-20T09:55:10.738Z,98778.09
2022-08-20T09:58:28.288Z,98771.75
2022-08-20T10:01:39.132Z,98771.72
2022-08-20T10:04:48.686Z,98774.22
2022-08-20T10:07:58.603Z,98774.28
2022-08-20T10:11:08.649Z,98763.81
2022-08-20T10:14:18.330Z,98765.47
2022-08-20T10:17:29.331Z,98770.94
2022-08-20T10:20:38.953Z,98766.66
2022-08-20T10:23:48.722Z,98771.97
2022-08-20T10:27:00.130Z,98760.41
2022-08-20T10:30:11.199Z,98777.72
2022-08-20T10:33:21.940Z,98762.59
2022-08-20T10:36:31.631Z,98767.31
2022-08-20T10:39:41.204Z,98768.22
2022-08-20T10:42:51.577Z,98767.38
2022-08-20T10:46:01.204Z,98755.16
2022-08-20T10:49:12.131Z,98763.13
2022-08-20T10:52:22.358Z,98757.75
2022-08-20T10:55:31.831Z,98753.09
2022-08-20T10:58:41.453Z,98751.22
2022-08-20T11:01:51.008Z,98754.75
2022-08-20T11:05:01.835Z,98754.47
2022-08-20T11:08:11.302Z,98747.19
2022-08-20T11:11:20.963Z,98751.09
2022-08-20T11:14:31.325Z,98765.47
2022-08-20T11:17:43.614Z,98753.09
2022-08-20T11:20:54.845Z,98741.59
2022-08-20T11:24:04.869Z,98749.22
2022-08-20T11:27:20.599Z,98742.00
2022-08-20T11:30:32.994Z,98746.16
2022-08-20T11:33:42.607Z,98735.38
2022-08-20T11:36:54.226Z,98731.75
2022-08-20T11:40:05.098Z,98734.13
2022-08-20T11:43:16.692Z,98727.28
2022-08-20T11:46:28.675Z,98732.22
2022-08-20T11:49:38.506Z,98734.94
2022-08-20T11:52:49.445Z,98720.34
2022-08-20T11:55:59.192Z,98742.84
2022-08-20T11:59:10.042Z,98739.66
2022-08-20T12:02:21.749Z,98726.34
2022-08-20T12:05:31.679Z,98724.78
2022-08-20T12:08:42.505Z,98724.22
2022-08-20T12:11:51.967Z,98726.56
2022-08-20T12:15:01.500Z,98716.16
2022-08-20T12:18:11.524Z,98723.13
2022-08-20T12:21:20.979Z,98721.56
2022-08-20T12:24:31.833Z,98722.28
2022-08-20T12:27:42.159Z,98718.41
2022-08-20T12:30:51.635Z,98712.59
2022-08-20T12:34:01.140Z,98706.41
2022-08-20T12:37:15.915Z,98703.34
2022-08-20T12:40:31.871Z,98703.53
2022-08-20T12:43:44.772Z,98698.31
2022-08-20T12:47:06.637Z,98696.16
2022-08-20T12:50:19.362Z,98704.13
2022-08-20T12:53:29.083Z,98703.69
2022-08-20T12:56:41.689Z,98703.56
2022-08-20T12:59:51.416Z,98722.94
2022-08-20T13:03:03.481Z,98709.63
2022-08-20T13:06:13.027Z,98725.78
2022-08-20T13:09:22.546Z,98720.63
2022-08-20T13:12:33.522Z,98717.97
2022-08-20T13:15:43.211Z,98725.31
2022-08-20T13:18:52.681Z,98719.38
2022-08-20T13:22:02.393Z,98717.78
2022-08-20T13:25:14.107Z,98709.06
2022-08-20T13:28:24.903Z,98726.09
2022-08-20T13:31:34.424Z,98727.66
2022-08-20T13:34:45.160Z,98723.00
2022-08-20T13:37:54.662Z,98720.69
2022-08-20T13:41:04.173Z,98716.38
2022-08-20T13:44:14.984Z,98712.22
2022-08-20T13:47:27.690Z,98722.63
2022-08-20T13:50:38.191Z,98723.34
2022-08-20T13:53:47.805Z,98719.03
2022-08-20T13:57:05.274Z,98714.03
2022-08-20T14:00:31.194Z,98718.63
2022-08-20T14:03:42.657Z,98712.53
2022-08-20T14:06:52.312Z,98716.44
2022-08-20T14:10:05.872Z,98721.75
2022-08-20T14:13:15.914Z,98716.03
2022-08-20T14:16:27.633Z,98714.03
2022-08-20T14:19:38.380Z,98710.00
2022-08-20T14:22:47.880Z,98719.25
2022-08-20T14:25:57.346Z,98718.81
2022-08-20T14:29:06.824Z,98710.28
2022-08-20T14:32:18.935Z,98720.41
2022-08-20T14:35:28.406Z,98720.56
2022-08-20T14:38:41.329Z,98718.91
2022-08-20T14:41:50.829Z,98710.09
2022-08-20T14:45:02.235Z,98713.94
2022-08-20T14:48:14.747Z,98708.81
2022-08-20T14:51:24.234Z,98725.59
2022-08-20T14:54:34.908Z,98719.56
2022-08-20T14:57:45.243Z,98722.28
2022-08-20T15:00:54.825Z,98718.75
2022-08-20T15:04:05.765Z,98735.56
2022-08-20T15:07:22.319Z,98727.53
2022-08-20T15:10:34.129Z,98721.28
2022-08-20T15:13:43.642Z,98721.16
2022-08-20T15:16:54.127Z,98717.19
2022-08-20T15:20:09.543Z,98720.38
2022-08-20T15:23:30.110Z,98712.97
2022-08-20T15:26:39.912Z,98712.00
2022-08-20T15:29:49.911Z,98718.00
2022-08-20T15:33:02.773Z,98714.13
2022-08-20T15:36:13.880Z,98715.00
2022-08-20T15:39:23.638Z,98708.81
2022-08-20T15:42:33.204Z,98709.59
2022-08-20T15:45:42.754Z,98700.00
2022-08-20T15:48:52.714Z,98707.03
2022-08-20T15:52:05.124Z,98703.25
2022-08-20T15:55:17.713Z,98697.03
2022-08-20T15:58:35.812Z,98689.72
2022-08-20T16:01:54.474Z,98693.16
2022-08-20T16:05:15.433Z,98696.03
2022-08-20T16:08:40.562Z,98698.13
2022-08-20T16:11:55.696Z,98695.22
2022-08-20T16:15:17.247Z,98697.63
2022-08-20T16:18:30.874Z,98699.84
2022-08-20T16:21:43.958Z,98707.38
2022-08-20T16:24:55.442Z,98705.56
2022-08-20T16:28:11.189Z,98710.03
2022-08-20T16:31:26.908Z,98719.28
2022-08-20T16:34:41.395Z,98724.91
2022-08-20T16:37:58.785Z,98718.06
2022-08-20T16:41:14.397Z,98719.13
2022-08-20T16:44:32.571Z,98721.06
2022-08-20T16:47:42.230Z,98723.75
2022-08-20T16:50:58.692Z,98713.28
2022-08-20T16:54:09.688Z,98713.28
2022-08-20T16:57:20.524Z,98715.88
2022-08-20T17:00:35.379Z,98715.88
2022-08-20T17:03:51.105Z,98739.97
2022-08-20T17:07:02.818Z,98739.16
2022-08-20T17:10:22.206Z,98742.81
2022-08-20T17:13:36.946Z,98726.97
2022-08-20T17:16:50.044Z,98735.78
2022-08-20T17:20:01.917Z,98738.44
2022-08-20T17:23:18.148Z,98740.22
2022-08-20T17:26:32.201Z,98744.66
2022-08-20T17:29:52.924Z,98751.59
2022-08-20T17:33:19.803Z,98754.06
2022-08-20T17:36:30.981Z,98758.16
2022-08-20T17:39:47.788Z,98763.22
2022-08-20T17:43:01.411Z,98762.16
2022-08-20T17:46:17.278Z,98773.28
2022-08-20T17:49:38.902Z,98774.78
2022-08-20T17:52:51.582Z,98774.47
2022-08-20T17:56:04.510Z,98774.25
2022-08-20T17:59:33.602Z,98782.91
2022-08-20T18:02:49.164Z,98784.47
2022-08-20T18:06:03.740Z,98775.50
2022-08-20T18:09:17.971Z,98770.06
2022-08-20T18:12:34.893Z,98780.47
2022-08-20T18:15:50.598Z,98789.03
2022-08-20T18:19:12.911Z,98799.34
2022-08-20T18:22:26.118Z,98795.56
2022-08-20T18:25:38.240Z,98800.59
2022-08-20T18:28:53.512Z,98802.09
2022-08-20T18:32:06.086Z,98803.66
2022-08-20T18:35:21.472Z,98813.16
2022-08-20T18:38:34.385Z,98815.56
2022-08-20T18:41:57.584Z,98812.66
2022-08-20T18:45:09.801Z,98820.31
2022-08-20T18:48:22.354Z,98819.94
2022-08-20T18:51:40.531Z,98825.84
2022-08-20T18:54:52.755Z,98830.75
2022-08-20T18:58:05.070Z,98839.16
2022-08-20T19:01:15.967Z,98832.47
2022-08-20T19:04:31.735Z,98841.72
2022-08-20T19:07:48.954Z,98841.28
2022-08-20T19:11:12.820Z,98851.41
2022-08-20T19:14:40.892Z,98859.66
2022-08-20T19:18:01.741Z,98861.75
2022-08-20T19:21:15.655Z,98877.03
2022-08-20T19:24:29.378Z,98875.00
2022-08-20T19:27:40.506Z,98876.41
2022-08-20T19:30:50.419Z,98877.53
2022-08-20T19:34:03.922Z,98878.91
2022-08-20T19:37:39.698Z,98884.53
2022-08-20T19:41:10.958Z,98891.09
2022-08-20T19:44:31.220Z,98889.69
2022-08-20T19:47:58.466Z,98895.53
2022-08-20T19:51:14.702Z,98894.91
2022-08-20T19:54:26.506Z,98890.84
2022-08-20T19:57:38.223Z,98892.25
2022-08-20T20:00:50.954Z,98895.31
2022-08-20T20:04:03.515Z,98895.88
2022-08-20T20:07:20.097Z,98898.09
2022-08-20T20:10:37.660Z,98899.31
2022-08-20T20:13:48.404Z,98893.28
2022-08-20T20:16:59.189Z,98902.09
2022-08-20T20:20:22.305Z,98894.88
2022-08-20T20:23:45.653Z,98894.28
2022-08-20T20:27:01.443Z,98905.22
2022-08-20T20:30:14.941Z,98899.25
2022-08-20T20:33:30.703Z,98900.09
2022-08-20T20:36:43.537Z,98900.72
2022-08-20T20:40:01.606Z,98908.28
2022-08-20T20:43:13.439Z,98910.38
2022-08-20T20:46:27.487Z,98913.34
2022-08-20T20:49:49.665Z,98913.72
2022-08-20T20:52:59.779Z,98911.28
2022-08-20T20:56:09.684Z,98915.78
2022-08-20T20:59:19.863Z,98920.75
2022-08-20T21:02:31.220Z,98915.25
2022-08-20T21:05:41.401Z,98913.34
2022-08-20T21:08:50.985Z,98913.59
2022-08-20T21:12:00.478Z,98927.66
2022-08-20T21:15:11.275Z,98930.47
2022-08-20T21:18:25.794Z,98925.66
2022-08-20T21:21:37.238Z,98923.16
2022-08-20T21:24:48.522Z,98925.09
2022-08-20T21:27:59.344Z,98927.38
2022-08-20T21:31:08.875Z,98930.91
2022-08-20T21:34:20.295Z,98932.16
2022-08-20T21:37:29.798Z,98937.91
2022-08-20T21:40:39.296Z,98934.28
2022-08-20T21:43:51.009Z,98938.53
2022-08-20T21:47:01.878Z,98939.03
2022-08-20T21:50:15.255Z,98935.00
2022-08-20T21:53:28.345Z,98940.69
